SAS1A EHRD-EKCH
Flight info
| Callsign | SAS1A |
|---|---|
| Flight time | N/A |
| Altitude | 39000 |
| Route | ANDIK N873 JUIST DCT DOSUR P729 TUDLO |
| Aircraft | A319/M-SDE3FGHIRWY/LB1 |
Departure
| Time | 2026-04-29 18:22 |
|---|---|
| Airport | Rotterdam The Hague Airport (EHRD) |
Arrival
| Time | N/A |
|---|---|
| Airport | Copenhagen Kastrup Airport (EKCH) |
| Time | Latitude | Longitude | Altitude | Speed | Heading |
|---|---|---|---|---|---|
| 2026-04-29 18:04 | 51.95115 | 4.43483 | 1 ft | 0 kts | 327° |
| 2026-04-29 18:18 | 51.95117 | 4.43481 | 1 ft | 2 kts | 327° |
| 2026-04-29 18:18 | 51.95139 | 4.43463 | 2 ft | 4 kts | 352° |
| 2026-04-29 18:19 | 51.95172 | 4.43494 | 1 ft | 7 kts | 19° |
| 2026-04-29 18:19 | 51.95223 | 4.43456 | 1 ft | 10 kts | 328° |
| 2026-04-29 18:19 | 51.95227 | 4.43370 | 1 ft | 10 kts | 238° |
| 2026-04-29 18:19 | 51.95186 | 4.43261 | 2 ft | 12 kts | 238° |
| 2026-04-29 18:20 | 51.95139 | 4.43129 | 1 ft | 15 kts | 243° |
| 2026-04-29 18:20 | 51.95112 | 4.42968 | 1 ft | 16 kts | 288° |
| 2026-04-29 18:20 | 51.95156 | 4.42901 | 1 ft | 0 kts | 328° |
| 2026-04-29 18:20 | 51.95164 | 4.42892 | 1 ft | 3 kts | 328° |
| 2026-04-29 18:21 | 51.95191 | 4.42865 | 2 ft | 6 kts | 328° |
| 2026-04-29 18:21 | 51.95227 | 4.42872 | 2 ft | 7 kts | 49° |
| 2026-04-29 18:21 | 51.95333 | 4.43132 | 2 ft | 56 kts | 57° |
| 2026-04-29 18:21 | 51.95653 | 4.43949 | 1 ft | 114 kts | 57° |
| 2026-04-29 18:22 | 51.96128 | 4.45155 | 338 ft | 129 kts | 59° |
| 2026-04-29 18:22 | 51.96634 | 4.46359 | 918 ft | 132 kts | 60° |
| 2026-04-29 18:22 | 51.97152 | 4.47604 | 1572 ft | 134 kts | 63° |
| 2026-04-29 18:22 | 51.97677 | 4.48899 | 2111 ft | 144 kts | 60° |
| 2026-04-29 18:23 | 51.98249 | 4.50334 | 2583 ft | 159 kts | 62° |
| 2026-04-29 18:23 | 51.98829 | 4.52011 | 2916 ft | 188 kts | 68° |
| 2026-04-29 18:23 | 51.99483 | 4.54123 | 3009 ft | 227 kts | 59° |
| 2026-04-29 18:23 | 52.00500 | 4.56179 | 3148 ft | 241 kts | 53° |
| 2026-04-29 18:24 | 52.01602 | 4.58250 | 4137 ft | 244 kts | 53° |
| 2026-04-29 18:24 | 52.02736 | 4.60337 | 5126 ft | 250 kts | 53° |
| 2026-04-29 18:24 | 52.03899 | 4.62479 | 6117 ft | 255 kts | 52° |
| 2026-04-29 18:24 | 52.05067 | 4.64662 | 7144 ft | 257 kts | 52° |
| 2026-04-29 18:25 | 52.06239 | 4.66884 | 8106 ft | 261 kts | 52° |
| 2026-04-29 18:25 | 52.07415 | 4.69144 | 9081 ft | 264 kts | 52° |
| 2026-04-29 18:25 | 52.08596 | 4.71447 | 10042 ft | 267 kts | 52° |
| 2026-04-29 18:25 | 52.09801 | 4.73820 | 10684 ft | 281 kts | 52° |
| 2026-04-29 18:26 | 52.11088 | 4.76388 | 10987 ft | 305 kts | 53° |
| 2026-04-29 18:26 | 52.12458 | 4.79127 | 11512 ft | 317 kts | 51° |
| 2026-04-29 18:26 | 52.14017 | 4.81535 | 12218 ft | 324 kts | 43° |
| 2026-04-29 18:26 | 52.15763 | 4.84017 | 12973 ft | 328 kts | 43° |
| 2026-04-29 18:27 | 52.17516 | 4.86499 | 13668 ft | 331 kts | 43° |
| 2026-04-29 18:27 | 52.19262 | 4.88967 | 14422 ft | 333 kts | 43° |
| 2026-04-29 18:27 | 52.21020 | 4.91455 | 15111 ft | 336 kts | 43° |
| 2026-04-29 18:27 | 52.22773 | 4.93939 | 15765 ft | 340 kts | 43° |
| 2026-04-29 18:28 | 52.24560 | 4.96478 | 16437 ft | 343 kts | 43° |
| 2026-04-29 18:28 | 52.26367 | 4.99053 | 17089 ft | 347 kts | 43° |
| 2026-04-29 18:28 | 52.28195 | 5.01662 | 17739 ft | 351 kts | 43° |
| 2026-04-29 18:28 | 52.30064 | 5.04332 | 18398 ft | 355 kts | 43° |
| 2026-04-29 18:29 | 52.31952 | 5.06967 | 18989 ft | 360 kts | 39° |
| 2026-04-29 18:29 | 52.33343 | 5.08478 | 19361 ft | 364 kts | 32° |
| 2026-04-29 18:29 | 52.36479 | 5.10555 | 20137 ft | 373 kts | 18° |
| 2026-04-29 18:29 | 52.38997 | 5.11648 | 20732 ft | 376 kts | 18° |
| 2026-04-29 18:30 | 52.41534 | 5.12749 | 21325 ft | 379 kts | 18° |
| 2026-04-29 18:30 | 52.44096 | 5.13863 | 21912 ft | 382 kts | 18° |
| 2026-04-29 18:30 | 52.46672 | 5.14988 | 22476 ft | 385 kts | 18° |
| 2026-04-29 18:30 | 52.49273 | 5.16129 | 23010 ft | 388 kts | 18° |
| 2026-04-29 18:31 | 52.51894 | 5.17283 | 23544 ft | 392 kts | 18° |
| 2026-04-29 18:31 | 52.54533 | 5.18448 | 24040 ft | 395 kts | 18° |
| 2026-04-29 18:31 | 52.57197 | 5.19627 | 24490 ft | 397 kts | 18° |
| 2026-04-29 18:31 | 52.59873 | 5.20813 | 24951 ft | 399 kts | 18° |
| 2026-04-29 18:32 | 52.62569 | 5.22006 | 25404 ft | 401 kts | 18° |
| 2026-04-29 18:32 | 52.67989 | 5.24404 | 26300 ft | 405 kts | 18° |
| 2026-04-29 18:32 | 52.70684 | 5.25768 | 26751 ft | 405 kts | 24° |
| 2026-04-29 18:33 | 52.73187 | 5.27864 | 27186 ft | 404 kts | 34° |
| 2026-04-29 18:33 | 52.74727 | 5.29699 | 27490 ft | 404 kts | 41° |
| 2026-04-29 18:33 | 52.76726 | 5.32954 | 27924 ft | 405 kts | 51° |
| 2026-04-29 18:33 | 52.78468 | 5.36615 | 28346 ft | 406 kts | 53° |
| 2026-04-29 18:34 | 52.80210 | 5.40306 | 28782 ft | 408 kts | 53° |
| 2026-04-29 18:34 | 52.81366 | 5.42755 | 29065 ft | 409 kts | 53° |
| 2026-04-29 18:34 | 52.83719 | 5.47744 | 29621 ft | 412 kts | 53° |
| 2026-04-29 18:34 | 52.85482 | 5.51491 | 30023 ft | 414 kts | 53° |
| 2026-04-29 18:35 | 52.87258 | 5.55271 | 30422 ft | 416 kts | 53° |
| 2026-04-29 18:35 | 52.89035 | 5.59064 | 30777 ft | 417 kts | 52° |
| 2026-04-29 18:35 | 52.90787 | 5.62822 | 31126 ft | 418 kts | 52° |
| 2026-04-29 18:35 | 52.92567 | 5.66645 | 31459 ft | 420 kts | 52° |
| 2026-04-29 18:36 | 52.94355 | 5.70485 | 31823 ft | 420 kts | 52° |
| 2026-04-29 18:36 | 52.96136 | 5.74311 | 32289 ft | 418 kts | 52° |
| 2026-04-29 18:36 | 52.97910 | 5.78120 | 32759 ft | 416 kts | 53° |
| 2026-04-29 18:36 | 52.99677 | 5.81918 | 33230 ft | 414 kts | 53° |
| 2026-04-29 18:37 | 53.01437 | 5.85710 | 33707 ft | 413 kts | 53° |
| 2026-04-29 18:37 | 53.03179 | 5.89474 | 34182 ft | 411 kts | 53° |
| 2026-04-29 18:37 | 53.04915 | 5.93238 | 34624 ft | 409 kts | 53° |
| 2026-04-29 18:37 | 53.06642 | 5.96996 | 35019 ft | 409 kts | 53° |
| 2026-04-29 18:38 | 53.08364 | 6.00750 | 35402 ft | 408 kts | 53° |
| 2026-04-29 18:38 | 53.10085 | 6.04499 | 35774 ft | 407 kts | 52° |
| 2026-04-29 18:38 | 53.11808 | 6.08247 | 36113 ft | 408 kts | 52° |
| 2026-04-29 18:38 | 53.13533 | 6.12002 | 36446 ft | 408 kts | 52° |
| 2026-04-29 18:39 | 53.15253 | 6.15749 | 36862 ft | 406 kts | 51° |
| 2026-04-29 18:39 | 53.16961 | 6.19480 | 37249 ft | 405 kts | 51° |
| 2026-04-29 18:39 | 53.18669 | 6.23220 | 37595 ft | 404 kts | 51° |
| 2026-04-29 18:39 | 53.20366 | 6.26948 | 37934 ft | 404 kts | 51° |
| 2026-04-29 18:40 | 53.22064 | 6.30686 | 38259 ft | 404 kts | 51° |
| 2026-04-29 18:40 | 53.23760 | 6.34419 | 38572 ft | 403 kts | 51° |
| 2026-04-29 18:40 | 53.25454 | 6.38153 | 38882 ft | 403 kts | 51° |
| 2026-04-29 18:40 | 53.26746 | 6.41005 | 39104 ft | 403 kts | 51° |
| 2026-04-29 18:41 | 53.30663 | 6.49680 | 39410 ft | 404 kts | 51° |
| 2026-04-29 18:41 | 53.32350 | 6.53435 | 39425 ft | 404 kts | 51° |
| 2026-04-29 18:42 | 53.35927 | 6.60628 | 39421 ft | 401 kts | 41° |
| 2026-04-29 18:42 | 53.40029 | 6.66886 | 39428 ft | 401 kts | 42° |